createdAt,value
2022-08-17T00:07:06.263Z,6.80
2022-08-17T00:11:23.605Z,7.50
2022-08-17T00:24:34.507Z,8.20
2022-08-17T00:33:19.706Z,8.20
2022-08-17T00:38:06.128Z,6.70
2022-08-17T01:11:59.000Z,7.40
2022-08-17T01:16:32.136Z,6.30
2022-08-17T01:55:39.820Z,6.10
2022-08-17T02:12:43.904Z,6.20
2022-08-17T02:34:26.615Z,6.90
2022-08-17T02:43:11.847Z,7.60
2022-08-17T02:47:36.996Z,7.50
2022-08-17T02:52:42.322Z,7.60
2022-08-17T03:18:45.220Z,6.10
2022-08-17T03:44:34.179Z,6.30
2022-08-17T03:53:43.443Z,6.60
2022-08-17T04:19:44.198Z,6.40
2022-08-17T04:41:47.581Z,9.30
2022-08-17T04:46:20.482Z,9.30
2022-08-17T05:50:43.329Z,8.80
2022-08-17T06:04:13.195Z,7.70
2022-08-17T06:17:32.603Z,8.70
2022-08-17T06:31:13.539Z,7.60
2022-08-17T06:35:46.899Z,6.90
2022-08-17T06:40:16.704Z,7.20
2022-08-17T06:49:10.065Z,7.80
2022-08-17T06:54:05.783Z,8.20
2022-08-17T06:58:40.248Z,8.40
2022-08-17T07:03:29.159Z,8.80
2022-08-17T07:08:30.567Z,9.30
2022-08-17T07:13:16.862Z,9.00
2022-08-17T07:17:52.436Z,9.10
2022-08-17T07:22:51.930Z,9.20
2022-08-17T07:27:45.626Z,9.40
2022-08-17T07:32:18.928Z,9.10
2022-08-17T07:36:41.941Z,10.30
2022-08-17T07:40:51.543Z,9.30
2022-08-17T07:45:30.383Z,10.50
2022-08-17T07:49:52.441Z,11.00
2022-08-17T07:54:15.341Z,10.50
2022-08-17T07:58:48.350Z,11.80
2022-08-17T08:03:07.335Z,12.70
2022-08-17T08:12:36.978Z,11.00
2022-08-17T08:17:38.909Z,10.40
2022-08-17T08:22:10.244Z,11.40
2022-08-17T08:26:43.228Z,9.70
2022-08-17T08:31:22.170Z,9.30
2022-08-17T08:35:54.912Z,10.90
2022-08-17T08:40:42.511Z,11.70
2022-08-17T08:45:04.981Z,11.50
2022-08-17T08:49:59.172Z,12.20
2022-08-17T08:54:26.435Z,12.00
2022-08-17T08:59:11.367Z,11.60
2022-08-17T09:03:53.151Z,11.20
2022-08-17T09:08:37.414Z,11.10
2022-08-17T09:13:21.289Z,10.70
2022-08-17T09:19:02.198Z,9.50
2022-08-17T09:22:59.441Z,7.70
2022-08-17T09:27:34.526Z,7.20
2022-08-17T09:32:18.213Z,8.00
2022-08-17T09:37:09.661Z,7.00
2022-08-17T09:41:53.517Z,7.30
2022-08-17T09:46:29.190Z,8.70
2022-08-17T09:51:04.200Z,8.40
2022-08-17T09:55:35.434Z,6.90
2022-08-17T10:00:07.009Z,6.90
2022-08-17T10:04:38.162Z,6.00
2022-08-17T10:09:17.992Z,5.10
2022-08-17T10:14:00.963Z,8.60
2022-08-17T10:18:46.824Z,7.90
2022-08-17T10:23:23.224Z,7.30
2022-08-17T10:27:56.627Z,7.40
2022-08-17T10:32:38.157Z,8.40
2022-08-17T10:37:29.810Z,9.70
2022-08-17T10:42:33.230Z,6.40
2022-08-17T10:47:26.963Z,6.50
2022-08-17T10:57:23.211Z,3.90
2022-08-17T11:01:40.869Z,3.10
2022-08-17T11:06:21.046Z,4.20
2022-08-17T11:10:52.234Z,4.60
2022-08-17T11:15:40.828Z,5.50
2022-08-17T11:20:28.999Z,5.30
2022-08-17T11:24:49.147Z,4.80
2022-08-17T11:29:27.998Z,3.80
2022-08-17T11:34:15.523Z,4.20
2022-08-17T11:39:06.248Z,4.00
2022-08-17T11:43:42.802Z,3.60
2022-08-17T11:48:27.724Z,5.40
2022-08-17T11:53:15.651Z,4.10
2022-08-17T11:57:51.682Z,3.00
2022-08-17T12:02:27.645Z,3.00
2022-08-17T12:07:05.033Z,2.90
2022-08-17T12:12:01.579Z,2.70
2022-08-17T12:16:18.462Z,4.30
2022-08-17T12:20:56.073Z,4.90
2022-08-17T12:25:29.677Z,4.20
2022-08-17T12:29:55.618Z,3.80
2022-08-17T12:34:29.103Z,4.40
2022-08-17T12:43:34.224Z,3.50
2022-08-17T12:48:01.726Z,3.90
2022-08-17T12:52:29.361Z,4.70
2022-08-17T12:57:01.934Z,6.50
2022-08-17T13:01:44.544Z,5.90
2022-08-17T13:06:23.340Z,4.10
2022-08-17T13:10:57.803Z,5.20
2022-08-17T13:15:32.910Z,3.90
2022-08-17T13:19:53.859Z,4.20
2022-08-17T13:24:15.418Z,4.40
2022-08-17T13:28:48.875Z,4.90
2022-08-17T13:33:44.520Z,5.70
2022-08-17T13:38:18.372Z,4.40
2022-08-17T13:42:53.134Z,5.90
2022-08-17T13:47:22.609Z,5.70
2022-08-17T13:51:57.355Z,4.80
2022-08-17T13:56:38.621Z,4.50
2022-08-17T14:01:18.908Z,5.90
2022-08-17T14:05:52.120Z,6.40
2022-08-17T14:10:19.544Z,9.30
2022-08-17T14:14:46.081Z,6.50
2022-08-17T14:19:19.396Z,7.20
2022-08-17T14:23:57.374Z,6.80
2022-08-17T14:28:10.139Z,6.10
2022-08-17T14:32:43.299Z,5.60
2022-08-17T14:41:45.623Z,6.90
2022-08-17T14:46:15.151Z,6.80
2022-08-17T14:50:39.371Z,7.60
2022-08-17T14:55:20.113Z,7.10
2022-08-17T14:59:57.130Z,8.90
2022-08-17T15:04:23.398Z,7.80
2022-08-17T15:08:52.293Z,8.90
2022-08-17T15:13:28.562Z,10.80
2022-08-17T15:18:03.047Z,10.10
2022-08-17T15:22:44.899Z,10.30
2022-08-17T15:27:13.977Z,10.30
2022-08-17T15:32:00.707Z,10.70
2022-08-17T15:36:41.408Z,9.80
2022-08-17T15:41:22.832Z,11.50
2022-08-17T15:45:59.682Z,11.20
2022-08-17T15:50:24.991Z,12.30
2022-08-17T15:55:18.748Z,12.40
2022-08-17T16:00:08.801Z,13.30
2022-08-17T16:04:47.942Z,10.30
2022-08-17T16:09:21.443Z,11.80
2022-08-17T16:13:56.200Z,11.70
2022-08-17T16:18:30.141Z,27.40
2022-08-17T16:23:20.163Z,13.60
2022-08-17T16:27:45.445Z,12.10
2022-08-17T16:37:37.530Z,15.00
2022-08-17T16:42:16.032Z,16.00
2022-08-17T16:46:51.129Z,16.10
2022-08-17T17:00:57.085Z,10.00
2022-08-17T17:05:28.722Z,8.80
2022-08-17T17:10:04.851Z,11.50
2022-08-17T17:14:37.011Z,12.70
2022-08-17T17:23:58.945Z,13.00
2022-08-17T17:28:32.943Z,10.70
2022-08-17T17:33:00.373Z,12.90
2022-08-17T17:42:20.457Z,16.60
2022-08-17T17:46:51.374Z,17.00
2022-08-17T17:51:54.752Z,18.00
2022-08-17T17:56:43.300Z,14.20
2022-08-17T18:01:14.959Z,15.00
2022-08-17T18:05:48.235Z,12.80
2022-08-17T18:10:43.750Z,13.90
2022-08-17T18:15:22.628Z,18.00
2022-08-17T18:19:58.624Z,14.60
2022-08-17T18:24:34.278Z,13.70
2022-08-17T18:28:52.540Z,16.20
2022-08-17T18:33:34.563Z,16.00
2022-08-17T18:38:14.572Z,15.20
2022-08-17T18:42:36.394Z,12.20
2022-08-17T18:51:05.495Z,10.60
2022-08-17T18:55:40.677Z,8.90
2022-08-17T19:00:21.504Z,11.80
2022-08-17T19:04:54.971Z,13.70
2022-08-17T19:09:30.786Z,13.00
2022-08-17T19:14:12.760Z,13.70
2022-08-17T19:18:48.352Z,13.20
2022-08-17T19:28:23.021Z,13.10
2022-08-17T19:32:56.284Z,16.50
2022-08-17T19:37:45.884Z,18.00
2022-08-17T19:42:21.317Z,15.60
2022-08-17T19:47:43.112Z,16.20
2022-08-17T19:52:05.499Z,17.60
2022-08-17T19:56:44.977Z,18.70
2022-08-17T20:01:08.743Z,18.00
2022-08-17T20:06:14.451Z,19.70
2022-08-17T20:10:55.098Z,18.20
2022-08-17T20:15:34.009Z,18.10
2022-08-17T20:20:19.795Z,17.90
2022-08-17T20:25:04.229Z,18.40
2022-08-17T20:29:39.987Z,17.20
2022-08-17T20:34:17.907Z,15.70
2022-08-17T20:38:51.227Z,16.20
2022-08-17T20:43:24.657Z,15.10
2022-08-17T20:53:03.609Z,16.60
2022-08-17T20:57:50.196Z,16.80
2022-08-17T21:02:23.183Z,15.20
2022-08-17T21:07:10.331Z,16.70
2022-08-17T21:11:56.749Z,16.30
2022-08-17T21:16:51.299Z,16.40
2022-08-17T21:21:24.384Z,15.30
2022-08-17T21:25:55.663Z,14.80
2022-08-17T21:30:28.630Z,13.50
2022-08-17T21:35:22.059Z,13.30
2022-08-17T21:40:11.082Z,12.50
2022-08-17T21:44:38.846Z,10.30
2022-08-17T21:49:16.680Z,10.40
2022-08-17T21:53:49.764Z,9.40
2022-08-17T21:58:22.954Z,7.80
2022-08-17T22:03:10.566Z,8.40
2022-08-17T22:07:43.746Z,8.00
2022-08-17T22:12:15.135Z,8.50
2022-08-17T22:16:53.573Z,8.90
2022-08-17T22:21:22.724Z,10.20
2022-08-17T22:26:06.553Z,10.00
2022-08-17T22:30:45.430Z,10.20
2022-08-17T22:40:10.849Z,11.90
2022-08-17T22:44:48.544Z,11.20
2022-08-17T22:49:26.562Z,13.70
2022-08-17T22:54:01.112Z,11.90
2022-08-17T22:58:26.889Z,13.20
2022-08-17T23:02:55.095Z,14.70
2022-08-17T23:07:19.384Z,16.10
2022-08-17T23:11:52.122Z,15.40
2022-08-17T23:16:26.364Z,16.40
2022-08-17T23:20:59.633Z,15.20
2022-08-17T23:25:32.930Z,16.20
2022-08-17T23:35:08.622Z,14.70
2022-08-17T23:39:41.470Z,11.90
2022-08-17T23:44:27.675Z,12.80
2022-08-17T23:49:00.142Z,12.50
2022-08-17T23:53:32.864Z,11.50
2022-08-17T23:58:19.311Z,11.60
